createdAt,value
2019-03-02T00:00:03.491Z,6.33
2019-03-02T00:01:02.379Z,6.21
2019-03-02T00:02:02.403Z,6.31
2019-03-02T00:03:02.422Z,6.34
2019-03-02T00:04:02.452Z,6.31
2019-03-02T00:05:02.475Z,6.34
2019-03-02T00:06:02.495Z,6.34
2019-03-02T00:07:02.522Z,6.29
2019-03-02T00:08:02.541Z,6.37
2019-03-02T00:09:02.567Z,6.37
2019-03-02T00:10:02.590Z,6.37
2019-03-02T00:11:02.611Z,6.36
2019-03-02T00:12:02.639Z,6.42
2019-03-02T00:13:03.864Z,6.40
2019-03-02T00:14:02.686Z,6.37
2019-03-02T00:15:02.710Z,6.43
2019-03-02T00:16:04.283Z,6.39
2019-03-02T00:17:02.760Z,6.46
2019-03-02T00:18:02.781Z,6.44
2019-03-02T00:19:06.278Z,6.40
2019-03-02T00:20:02.836Z,6.42
2019-03-02T00:21:02.855Z,6.46
2019-03-02T00:22:06.508Z,6.43
2019-03-02T00:23:02.903Z,6.44
2019-03-02T00:24:02.924Z,6.39
2019-03-02T00:25:02.947Z,6.46
2019-03-02T00:26:06.373Z,6.52
2019-03-02T00:27:02.998Z,6.51
2019-03-02T00:28:03.023Z,6.44
2019-03-02T00:29:03.045Z,6.51
2019-03-02T00:30:03.075Z,6.46
2019-03-02T00:31:03.092Z,6.39
2019-03-02T00:32:05.821Z,6.37
2019-03-02T00:33:03.149Z,6.33
2019-03-02T00:34:03.169Z,6.40
2019-03-02T00:35:03.868Z,6.33
2019-03-02T00:36:03.214Z,6.39
2019-03-02T00:37:03.236Z,6.39
2019-03-02T00:38:05.012Z,6.43
2019-03-02T00:39:03.286Z,6.40
2019-03-02T00:40:04.742Z,6.42
2019-03-02T00:41:03.781Z,6.42
2019-03-02T00:42:03.358Z,6.39
2019-03-02T00:43:03.388Z,6.43
2019-03-02T00:44:03.822Z,6.39
2019-03-02T00:45:03.426Z,6.43
2019-03-02T00:46:03.451Z,6.43
2019-03-02T00:47:03.475Z,6.44
2019-03-02T00:48:03.502Z,6.42
2019-03-02T00:49:03.523Z,6.55
2019-03-02T00:50:03.546Z,6.54
2019-03-02T00:51:03.573Z,6.57
2019-03-02T00:52:03.596Z,6.55
2019-03-02T00:53:03.622Z,6.43
2019-03-02T00:54:03.646Z,6.46
2019-03-02T00:55:03.668Z,6.43
2019-03-02T00:56:04.081Z,6.51
2019-03-02T00:57:03.722Z,6.47
2019-03-02T00:58:03.740Z,6.44
2019-03-02T00:59:04.163Z,6.42
2019-03-02T01:00:03.787Z,6.44
2019-03-02T01:01:03.813Z,6.39
2019-03-02T01:02:04.441Z,6.42
2019-03-02T01:03:03.858Z,6.44
2019-03-02T01:04:03.892Z,6.44
2019-03-02T01:05:03.910Z,6.44
2019-03-02T01:06:03.933Z,6.55
2019-03-02T01:07:03.964Z,6.52
2019-03-02T01:08:03.981Z,6.61
2019-03-02T01:09:04.002Z,6.51
2019-03-02T01:10:04.026Z,6.64
2019-03-02T01:11:04.059Z,6.64
2019-03-02T01:12:05.796Z,6.65
2019-03-02T01:13:04.100Z,6.57
2019-03-02T01:14:04.122Z,6.65
2019-03-02T01:15:05.169Z,6.60
2019-03-02T01:16:04.186Z,6.58
2019-03-02T01:17:04.198Z,6.68
2019-03-02T01:18:06.573Z,6.75
2019-03-02T01:19:04.249Z,6.68
2019-03-02T01:20:04.274Z,6.72
2019-03-02T01:21:05.116Z,6.73
2019-03-02T01:22:04.322Z,6.73
2019-03-02T01:23:04.354Z,6.70
2019-03-02T01:24:04.573Z,6.60
2019-03-02T01:25:04.392Z,6.72
2019-03-02T01:26:04.421Z,6.57
2019-03-02T01:27:04.440Z,6.68
2019-03-02T01:28:06.599Z,6.62
2019-03-02T01:29:04.485Z,6.54
2019-03-02T01:30:04.525Z,6.55
2019-03-02T01:31:05.171Z,6.52
2019-03-02T01:32:05.978Z,6.49
2019-03-02T01:33:04.596Z,6.46
2019-03-02T01:34:08.165Z,6.54
2019-03-02T01:35:04.627Z,6.55
2019-03-02T01:36:04.650Z,6.61
2019-03-02T01:37:07.710Z,6.52
2019-03-02T01:38:04.704Z,6.54
2019-03-02T01:39:04.732Z,6.52
2019-03-02T01:40:06.011Z,6.44
2019-03-02T01:41:04.778Z,6.42
2019-03-02T01:42:04.795Z,6.42
2019-03-02T01:43:05.040Z,6.44
2019-03-02T01:44:04.946Z,6.34
2019-03-02T01:45:04.876Z,6.43
2019-03-02T01:46:04.891Z,6.39
2019-03-02T01:47:04.920Z,6.37
2019-03-02T01:48:04.951Z,6.42
2019-03-02T01:49:04.981Z,6.34
2019-03-02T01:50:04.987Z,6.43
2019-03-02T01:51:05.011Z,6.36
2019-03-02T01:52:05.036Z,6.34
2019-03-02T01:53:06.529Z,6.43
2019-03-02T01:54:05.090Z,6.40
2019-03-02T01:55:05.107Z,6.37
2019-03-02T01:56:06.167Z,6.34
2019-03-02T01:57:05.156Z,6.40
2019-03-02T01:58:05.181Z,6.40
2019-03-02T01:59:05.207Z,6.40
2019-03-02T02:00:05.227Z,6.46
2019-03-02T02:01:05.275Z,6.43
2019-03-02T02:02:05.274Z,6.44
2019-03-02T02:03:08.502Z,6.54
2019-03-02T02:04:05.326Z,6.51
2019-03-02T02:05:05.347Z,6.43
2019-03-02T02:06:07.377Z,6.40
2019-03-02T02:07:05.402Z,6.44
2019-03-02T02:08:05.422Z,6.42
2019-03-02T02:09:05.965Z,6.42
2019-03-02T02:10:05.473Z,6.37
2019-03-02T02:11:05.494Z,6.40
2019-03-02T02:12:05.514Z,6.40
2019-03-02T02:13:06.193Z,6.34
2019-03-02T02:14:05.563Z,6.39
2019-03-02T02:15:05.589Z,6.42
2019-03-02T02:16:06.764Z,6.39
2019-03-02T02:17:05.638Z,6.37
2019-03-02T02:18:05.660Z,6.47
2019-03-02T02:19:05.684Z,6.43
2019-03-02T02:20:05.715Z,6.42
2019-03-02T02:21:05.733Z,6.51
2019-03-02T02:22:05.761Z,6.51
2019-03-02T02:23:05.777Z,6.40
2019-03-02T02:24:05.805Z,6.40
2019-03-02T02:25:05.829Z,6.42
2019-03-02T02:26:07.638Z,6.43
2019-03-02T02:27:05.873Z,6.37
2019-03-02T02:28:05.900Z,6.37
2019-03-02T02:29:08.330Z,6.37
2019-03-02T02:30:05.944Z,6.31
2019-03-02T02:31:07.596Z,6.34
2019-03-02T02:32:05.998Z,6.31
2019-03-02T02:33:06.139Z,6.33
2019-03-02T02:34:06.043Z,6.39
2019-03-02T02:35:06.067Z,6.31
2019-03-02T02:36:06.094Z,6.18
2019-03-02T02:37:06.116Z,6.28
2019-03-02T02:38:06.155Z,6.29
2019-03-02T02:39:06.164Z,6.36
2019-03-02T02:40:07.941Z,6.42
2019-03-02T02:41:06.212Z,6.40
2019-03-02T02:42:06.897Z,6.31
2019-03-02T02:43:06.255Z,6.31
2019-03-02T02:44:06.281Z,6.31
2019-03-02T02:45:06.309Z,6.34
2019-03-02T02:46:06.336Z,6.29
2019-03-02T02:47:07.076Z,6.31
2019-03-02T02:48:06.378Z,6.40
2019-03-02T02:49:10.131Z,6.34
2019-03-02T02:50:06.425Z,6.34
2019-03-02T02:51:09.682Z,6.33
2019-03-02T02:52:06.470Z,6.25
2019-03-02T02:53:08.266Z,6.33
2019-03-02T02:54:06.526Z,6.34
2019-03-02T02:55:06.549Z,6.33
2019-03-02T02:56:06.568Z,6.36
2019-03-02T02:57:06.605Z,6.31
2019-03-02T02:58:06.615Z,6.34
2019-03-02T02:59:06.637Z,6.37
2019-03-02T03:00:06.661Z,6.29
2019-03-02T03:01:06.994Z,6.36
2019-03-02T03:02:10.683Z,6.34
2019-03-02T03:03:06.732Z,6.24
2019-03-02T03:04:06.956Z,6.33
2019-03-02T03:05:10.282Z,6.25
2019-03-02T03:06:06.808Z,6.33
2019-03-02T03:07:11.842Z,6.34
2019-03-02T03:08:06.853Z,6.31
2019-03-02T03:09:09.616Z,6.34
2019-03-02T03:10:06.912Z,6.33
2019-03-02T03:11:08.234Z,6.36
2019-03-02T03:12:06.947Z,6.28
2019-03-02T03:13:06.976Z,6.39
2019-03-02T03:14:06.994Z,6.37
2019-03-02T03:15:07.024Z,6.28
2019-03-02T03:16:11.681Z,6.25
2019-03-02T03:17:07.069Z,6.33
2019-03-02T03:18:12.437Z,6.34
2019-03-02T03:19:07.123Z,6.34
2019-03-02T03:20:10.751Z,6.29
2019-03-02T03:21:07.161Z,6.33
2019-03-02T03:22:08.955Z,6.34
2019-03-02T03:23:07.210Z,6.34
2019-03-02T03:24:07.251Z,6.36
2019-03-02T03:25:07.256Z,6.36
2019-03-02T03:26:07.278Z,6.42
2019-03-02T03:27:09.016Z,6.36
2019-03-02T03:28:07.345Z,6.40
2019-03-02T03:29:09.870Z,6.40
2019-03-02T03:30:07.385Z,6.42
2019-03-02T03:31:20.847Z,6.43
2019-03-02T03:32:09.234Z,6.31
2019-03-02T03:33:07.448Z,6.34
2019-03-02T03:34:07.481Z,6.39
2019-03-02T03:35:15.344Z,6.39
2019-03-02T03:36:07.525Z,6.31
2019-03-02T03:37:08.578Z,6.29
2019-03-02T03:38:07.567Z,6.28
2019-03-02T03:39:09.072Z,6.21
2019-03-02T03:40:07.615Z,6.07
2019-03-02T03:41:07.658Z,6.24
2019-03-02T03:42:07.660Z,6.18
2019-03-02T03:43:07.686Z,6.20
2019-03-02T03:44:07.713Z,6.09
2019-03-02T03:45:07.738Z,6.15
2019-03-02T03:46:07.760Z,6.24
2019-03-02T03:47:07.782Z,6.20
2019-03-02T03:48:07.818Z,6.25
2019-03-02T03:49:07.840Z,6.21
2019-03-02T03:50:09.274Z,6.26
2019-03-02T03:51:07.877Z,6.25
2019-03-02T03:52:09.002Z,6.25
2019-03-02T03:53:07.941Z,6.29
2019-03-02T03:54:08.901Z,6.29
2019-03-02T03:55:07.973Z,6.21
2019-03-02T03:56:08.001Z,6.26
2019-03-02T03:57:08.020Z,6.17
2019-03-02T03:58:08.047Z,6.15
2019-03-02T03:59:08.067Z,6.17
2019-03-02T04:00:08.090Z,6.26
2019-03-02T04:01:08.113Z,6.17
2019-03-02T04:02:08.135Z,6.20
2019-03-02T04:03:09.033Z,6.26
2019-03-02T04:04:08.187Z,6.20
2019-03-02T04:05:09.797Z,6.25
2019-03-02T04:06:08.231Z,6.31
2019-03-02T04:07:08.286Z,6.31
2019-03-02T04:08:08.732Z,6.21
2019-03-02T04:09:10.211Z,6.18
2019-03-02T04:10:08.728Z,6.25
2019-03-02T04:11:08.868Z,6.26
2019-03-02T04:12:08.372Z,6.25
2019-03-02T04:13:08.400Z,6.28
2019-03-02T04:14:08.436Z,6.20
2019-03-02T04:15:08.454Z,6.21
2019-03-02T04:16:08.478Z,6.13
2019-03-02T04:17:08.492Z,6.24
2019-03-02T04:18:12.659Z,6.20
2019-03-02T04:19:08.541Z,6.26
2019-03-02T04:20:12.542Z,6.20
2019-03-02T04:21:08.590Z,6.24
2019-03-02T04:22:08.608Z,6.26
2019-03-02T04:23:08.636Z,6.09
2019-03-02T04:24:08.663Z,6.17
2019-03-02T04:25:13.014Z,6.15
2019-03-02T04:26:08.703Z,6.17
2019-03-02T04:27:11.091Z,6.21
2019-03-02T04:28:08.755Z,6.24
2019-03-02T04:29:11.249Z,6.13
2019-03-02T04:30:08.812Z,6.20
2019-03-02T04:31:10.437Z,6.10
2019-03-02T04:32:08.852Z,6.14
2019-03-02T04:33:08.871Z,6.21
2019-03-02T04:34:08.896Z,6.17
2019-03-02T04:35:08.918Z,5.99
2019-03-02T04:36:10.065Z,6.06
2019-03-02T04:37:08.969Z,6.05
2019-03-02T04:38:08.990Z,6.00
2019-03-02T04:39:09.785Z,6.06
2019-03-02T04:40:09.038Z,6.14
2019-03-02T04:41:09.062Z,6.13
2019-03-02T04:42:11.714Z,6.13
2019-03-02T04:43:09.711Z,6.07
2019-03-02T04:44:09.732Z,6.09
2019-03-02T04:45:09.709Z,6.13
2019-03-02T04:46:11.726Z,6.20
2019-03-02T04:47:09.706Z,6.20
2019-03-02T04:48:09.728Z,6.10
2019-03-02T04:49:10.850Z,6.10
2019-03-02T04:50:09.274Z,6.15
2019-03-02T04:51:09.750Z,6.10
2019-03-02T04:52:11.583Z,6.09
2019-03-02T04:53:09.351Z,6.14
2019-03-02T04:54:09.373Z,6.26
2019-03-02T04:55:13.300Z,6.20
2019-03-02T04:56:09.770Z,6.21
2019-03-02T04:57:09.747Z,6.24
2019-03-02T04:58:11.923Z,6.15
2019-03-02T04:59:09.688Z,6.06
2019-03-02T05:00:09.514Z,6.09
2019-03-02T05:01:09.738Z,6.09
2019-03-02T05:02:09.711Z,6.21
2019-03-02T05:03:09.584Z,6.20
2019-03-02T05:04:09.609Z,6.24
2019-03-02T05:05:09.636Z,6.15
2019-03-02T05:06:09.655Z,6.21
2019-03-02T05:07:09.683Z,6.07
2019-03-02T05:08:09.704Z,6.28
2019-03-02T05:09:09.728Z,6.25
2019-03-02T05:10:09.751Z,6.21
2019-03-02T05:11:09.778Z,6.31
2019-03-02T05:12:11.542Z,6.36
2019-03-02T05:13:09.824Z,6.39
2019-03-02T05:14:09.853Z,6.36
2019-03-02T05:15:11.804Z,6.36
2019-03-02T05:16:09.895Z,6.37
2019-03-02T05:17:09.918Z,6.40
2019-03-02T05:18:09.949Z,6.34
2019-03-02T05:19:09.967Z,6.34
2019-03-02T05:20:09.991Z,6.33
2019-03-02T05:21:10.412Z,6.40
2019-03-02T05:22:10.039Z,6.31
2019-03-02T05:23:10.061Z,6.31
2019-03-02T05:25:10.208Z,6.29
2019-03-02T05:26:10.735Z,6.26
2019-03-02T05:27:10.158Z,6.31
2019-03-02T05:28:10.179Z,6.26
2019-03-02T05:29:10.206Z,6.28
2019-03-02T05:30:10.228Z,6.26
2019-03-02T05:31:10.714Z,6.25
2019-03-02T05:32:12.627Z,6.29
2019-03-02T05:33:10.301Z,6.17
2019-03-02T05:34:10.726Z,6.26
2019-03-02T05:35:11.703Z,6.20
2019-03-02T05:36:10.733Z,6.28
2019-03-02T05:37:10.759Z,6.24
2019-03-02T05:38:11.766Z,6.33
2019-03-02T05:39:13.827Z,6.33
2019-03-02T05:40:10.723Z,6.33
2019-03-02T05:41:10.745Z,6.24
2019-03-02T05:42:13.527Z,6.31
2019-03-02T05:43:10.740Z,6.24
2019-03-02T05:44:10.566Z,6.18
2019-03-02T05:45:10.594Z,6.24
2019-03-02T05:46:10.613Z,6.14
2019-03-02T05:47:10.652Z,6.28
2019-03-02T05:48:10.710Z,6.14
2019-03-02T05:49:10.733Z,6.15
2019-03-02T05:50:10.760Z,6.15
2019-03-02T05:51:10.729Z,6.13
2019-03-02T05:52:10.757Z,6.17
2019-03-02T05:53:10.793Z,6.28
2019-03-02T05:54:10.804Z,6.25
2019-03-02T05:55:14.355Z,6.25
2019-03-02T05:56:10.851Z,6.13
2019-03-02T05:57:10.880Z,6.15
2019-03-02T05:58:12.584Z,6.20
2019-03-02T05:59:10.924Z,6.26
2019-03-02T06:00:10.945Z,6.20
2019-03-02T06:01:13.590Z,6.24
2019-03-02T06:02:13.923Z,6.28
2019-03-02T06:03:11.014Z,6.21
2019-03-02T06:04:11.044Z,6.29
2019-03-02T06:05:11.064Z,6.31
2019-03-02T06:06:11.090Z,6.29
2019-03-02T06:07:11.761Z,6.26
2019-03-02T06:08:11.736Z,6.31
2019-03-02T06:09:13.960Z,6.31
2019-03-02T06:10:13.608Z,6.24
2019-03-02T06:11:11.709Z,6.28
2019-03-02T06:12:15.419Z,6.26
2019-03-02T06:13:11.257Z,6.34
2019-03-02T06:14:11.278Z,6.31
2019-03-02T06:15:11.302Z,6.31
2019-03-02T06:16:11.324Z,6.18
2019-03-02T06:17:11.353Z,6.33
2019-03-02T06:18:11.379Z,6.26
2019-03-02T06:19:11.395Z,6.24
2019-03-02T06:20:11.421Z,6.20
2019-03-02T06:21:11.949Z,6.21
2019-03-02T06:22:11.465Z,6.21
2019-03-02T06:23:11.492Z,6.26
2019-03-02T06:24:11.516Z,6.17
2019-03-02T06:25:19.235Z,6.24
2019-03-02T06:26:11.562Z,6.25
2019-03-02T06:27:11.779Z,6.07
2019-03-02T06:28:11.609Z,6.21
2019-03-02T06:29:11.636Z,6.07
2019-03-02T06:30:11.659Z,6.17
2019-03-02T06:31:11.681Z,6.21
2019-03-02T06:32:11.708Z,6.28
2019-03-02T06:33:11.730Z,6.37
2019-03-02T06:34:11.754Z,6.26
2019-03-02T06:35:11.779Z,6.25
2019-03-02T06:36:11.805Z,6.36
2019-03-02T06:37:11.831Z,6.29
2019-03-02T06:38:11.849Z,6.26
2019-03-02T06:39:11.879Z,6.26
2019-03-02T06:40:11.898Z,6.07
2019-03-02T06:41:11.921Z,6.18
2019-03-02T06:42:11.942Z,6.25
2019-03-02T06:43:11.971Z,6.09
2019-03-02T06:44:11.990Z,6.10
2019-03-02T06:45:12.016Z,6.25
2019-03-02T06:46:12.041Z,6.18
2019-03-02T06:47:12.063Z,6.26
2019-03-02T06:48:12.086Z,6.07
2019-03-02T06:49:12.714Z,6.24
2019-03-02T06:50:12.737Z,6.20
2019-03-02T06:51:12.520Z,6.20
2019-03-02T06:52:12.683Z,6.10
2019-03-02T06:53:12.206Z,6.09
2019-03-02T06:54:12.959Z,6.15
2019-03-02T06:55:12.259Z,6.10
2019-03-02T06:56:12.274Z,6.17
2019-03-02T06:57:14.077Z,6.18
2019-03-02T06:58:12.724Z,6.17
2019-03-02T06:59:12.348Z,6.18
2019-03-02T07:00:13.972Z,6.24
2019-03-02T07:01:12.755Z,6.20
2019-03-02T07:02:12.420Z,6.26
2019-03-02T07:03:12.743Z,6.28
2019-03-02T07:04:12.468Z,6.34
2019-03-02T07:05:12.689Z,6.33
2019-03-02T07:06:12.850Z,6.39
2019-03-02T07:07:12.739Z,6.44
2019-03-02T07:08:12.558Z,6.49
2019-03-02T07:09:12.739Z,6.60
2019-03-02T07:10:17.766Z,6.57
2019-03-02T07:11:12.629Z,6.54
2019-03-02T07:12:12.655Z,6.55
2019-03-02T07:13:13.698Z,6.42
2019-03-02T07:14:12.706Z,6.42
2019-03-02T07:15:13.386Z,6.44
2019-03-02T07:16:12.760Z,6.54
2019-03-02T07:17:12.774Z,6.54
2019-03-02T07:18:12.797Z,6.52
2019-03-02T07:19:13.467Z,6.52
2019-03-02T07:20:12.845Z,6.67
2019-03-02T07:21:12.871Z,6.54
2019-03-02T07:22:13.625Z,6.64
2019-03-02T07:23:12.925Z,6.65
2019-03-02T07:24:12.942Z,6.64
2019-03-02T07:25:14.657Z,6.76
2019-03-02T07:26:15.850Z,6.70
2019-03-02T07:27:13.012Z,6.67
2019-03-02T07:28:13.037Z,6.70
2019-03-02T07:29:13.899Z,6.75
2019-03-02T07:30:13.085Z,6.72
2019-03-02T07:31:13.115Z,6.65
2019-03-02T07:32:13.135Z,6.78
2019-03-02T07:33:13.157Z,6.78
2019-03-02T07:34:13.181Z,6.88
2019-03-02T07:35:15.879Z,6.86
2019-03-02T07:36:13.229Z,6.91
2019-03-02T07:37:13.253Z,6.83
2019-03-02T07:38:13.274Z,6.82
2019-03-02T07:39:13.301Z,6.86
2019-03-02T07:40:13.329Z,6.86
2019-03-02T07:41:13.349Z,6.91
2019-03-02T07:42:13.379Z,6.86
2019-03-02T07:43:13.395Z,6.91
2019-03-02T07:44:13.423Z,6.82
2019-03-02T07:45:13.443Z,6.85
2019-03-02T07:46:13.469Z,6.94
2019-03-02T07:47:14.101Z,6.85
2019-03-02T07:48:13.519Z,6.93
2019-03-02T07:49:14.300Z,6.91
2019-03-02T07:50:13.564Z,6.91
2019-03-02T07:51:13.588Z,6.94
2019-03-02T07:52:16.857Z,6.95
2019-03-02T07:53:13.638Z,7.08
2019-03-02T07:54:13.658Z,7.01
2019-03-02T07:55:14.816Z,7.05
2019-03-02T07:56:13.706Z,7.03
2019-03-02T07:57:13.737Z,7.05
2019-03-02T07:58:16.633Z,7.05
2019-03-02T07:59:13.778Z,7.03
2019-03-02T08:00:14.209Z,7.09
2019-03-02T08:01:16.654Z,6.98
2019-03-02T08:02:13.853Z,6.98
2019-03-02T08:03:13.878Z,7.08
2019-03-02T08:04:13.900Z,7.11
2019-03-02T08:05:14.698Z,7.13
2019-03-02T08:06:13.946Z,7.09
2019-03-02T08:07:13.973Z,7.16
2019-03-02T08:08:14.820Z,7.12
2019-03-02T08:09:15.433Z,7.15
2019-03-02T08:10:14.048Z,7.11
2019-03-02T08:11:14.348Z,7.13
2019-03-02T08:12:14.093Z,7.23
2019-03-02T08:13:14.116Z,7.21
2019-03-02T08:14:16.083Z,7.21
2019-03-02T08:15:14.165Z,7.26
2019-03-02T08:16:14.190Z,7.16
2019-03-02T08:17:14.442Z,7.23
2019-03-02T08:18:14.236Z,7.23
2019-03-02T08:19:14.263Z,7.37
2019-03-02T08:20:16.438Z,7.27
2019-03-02T08:21:14.311Z,7.30
2019-03-02T08:22:14.336Z,7.49
2019-03-02T08:23:14.775Z,7.44
2019-03-02T08:24:14.392Z,7.37
2019-03-02T08:25:14.407Z,7.51
2019-03-02T08:26:14.983Z,7.41
2019-03-02T08:27:14.506Z,7.54
2019-03-02T08:28:14.480Z,7.41
2019-03-02T08:29:17.701Z,7.45
2019-03-02T08:30:14.532Z,7.56
2019-03-02T08:31:14.554Z,7.45
2019-03-02T08:32:17.671Z,7.59
2019-03-02T08:33:14.608Z,7.54
2019-03-02T08:34:14.630Z,7.63
2019-03-02T08:35:14.653Z,7.67
2019-03-02T08:36:16.957Z,7.67
2019-03-02T08:37:16.528Z,7.61
2019-03-02T08:38:14.725Z,7.71
2019-03-02T08:39:14.763Z,7.59
2019-03-02T08:40:14.772Z,7.61
2019-03-02T08:41:14.797Z,7.68
2019-03-02T08:42:14.825Z,7.70
2019-03-02T08:43:16.461Z,7.63
2019-03-02T08:44:15.547Z,7.61
2019-03-02T08:45:14.896Z,7.71
2019-03-02T08:46:14.919Z,7.71
2019-03-02T08:47:14.946Z,7.68
2019-03-02T08:48:14.969Z,7.71
2019-03-02T08:49:14.998Z,7.73
2019-03-02T08:50:17.556Z,7.68
2019-03-02T08:51:15.048Z,7.67
2019-03-02T08:52:15.068Z,7.71
2019-03-02T08:53:15.091Z,7.64
2019-03-02T08:54:17.856Z,7.67
2019-03-02T08:55:15.139Z,7.67
2019-03-02T08:56:15.165Z,7.58
2019-03-02T08:57:15.190Z,7.59
2019-03-02T08:58:15.211Z,7.59
2019-03-02T08:59:15.236Z,7.64
2019-03-02T09:00:15.270Z,7.56
2019-03-02T09:01:18.275Z,7.64
2019-03-02T09:02:15.321Z,7.52
2019-03-02T09:03:15.336Z,7.55
2019-03-02T09:04:15.363Z,7.61
2019-03-02T09:05:15.391Z,7.51
2019-03-02T09:06:15.410Z,7.63
2019-03-02T09:07:15.439Z,7.63
2019-03-02T09:08:15.456Z,7.56
2019-03-02T09:09:15.485Z,7.49
2019-03-02T09:10:15.506Z,7.68
2019-03-02T09:11:15.530Z,7.64
2019-03-02T09:12:17.872Z,7.67
2019-03-02T09:13:15.579Z,7.70
2019-03-02T09:14:15.609Z,7.64
2019-03-02T09:15:15.631Z,7.63
2019-03-02T09:16:15.653Z,7.61
2019-03-02T09:17:17.722Z,7.80
2019-03-02T09:18:15.710Z,7.80
2019-03-02T09:19:16.764Z,7.78
2019-03-02T09:20:15.751Z,7.73
2019-03-02T09:21:15.775Z,7.64
2019-03-02T09:22:15.799Z,7.67
2019-03-02T09:23:15.823Z,7.73
2019-03-02T09:24:15.851Z,7.78
2019-03-02T09:25:15.873Z,7.77
2019-03-02T09:26:15.902Z,7.78
2019-03-02T09:27:15.930Z,7.74
2019-03-02T09:28:15.948Z,7.80
2019-03-02T09:29:15.973Z,7.78
2019-03-02T09:30:15.996Z,7.78
2019-03-02T09:31:25.634Z,7.83
2019-03-02T09:32:16.044Z,7.88
2019-03-02T09:33:16.072Z,7.74
2019-03-02T09:34:16.093Z,7.91
2019-03-02T09:35:17.052Z,7.85
2019-03-02T09:36:16.145Z,7.89
2019-03-02T09:37:16.170Z,7.86
2019-03-02T09:38:17.064Z,7.91
2019-03-02T09:39:16.216Z,7.92
2019-03-02T09:40:16.245Z,7.89
2019-03-02T09:41:16.273Z,7.78
2019-03-02T09:42:16.292Z,7.86
2019-03-02T09:43:17.166Z,7.85
2019-03-02T09:44:16.341Z,7.86
2019-03-02T09:45:16.366Z,7.85
2019-03-02T09:46:16.390Z,7.98
2019-03-02T09:47:16.415Z,8.01
2019-03-02T09:48:16.437Z,7.99
2019-03-02T09:49:16.711Z,8.03
2019-03-02T09:50:16.713Z,8.06
2019-03-02T09:51:16.514Z,8.03
2019-03-02T09:52:16.744Z,8.13
2019-03-02T09:53:16.718Z,8.01
2019-03-02T09:54:16.587Z,8.11
2019-03-02T09:55:18.440Z,8.14
2019-03-02T09:56:16.634Z,8.13
2019-03-02T09:57:16.664Z,8.11
2019-03-02T09:58:20.341Z,8.17
2019-03-02T09:59:16.712Z,8.19
2019-03-02T10:00:19.202Z,8.19
2019-03-02T10:01:16.759Z,8.19
2019-03-02T10:02:16.780Z,8.16
2019-03-02T10:03:16.811Z,8.16
2019-03-02T10:04:16.830Z,8.14
2019-03-02T10:05:16.856Z,8.22
2019-03-02T10:06:16.879Z,8.26
2019-03-02T10:07:16.909Z,8.26
2019-03-02T10:08:16.930Z,8.09
2019-03-02T10:09:16.952Z,8.16
2019-03-02T10:10:16.980Z,8.19
2019-03-02T10:11:17.005Z,8.16
2019-03-02T10:12:17.028Z,8.22
2019-03-02T10:13:17.051Z,8.31
2019-03-02T10:14:17.078Z,8.28
2019-03-02T10:15:19.285Z,8.25
2019-03-02T10:16:17.128Z,8.19
2019-03-02T10:17:17.158Z,8.14
2019-03-02T10:18:17.185Z,8.03
2019-03-02T10:19:17.200Z,8.17
2019-03-02T10:20:17.226Z,8.21
2019-03-02T10:21:17.250Z,8.14
2019-03-02T10:22:19.818Z,8.03
2019-03-02T10:23:17.304Z,7.98
2019-03-02T10:24:18.024Z,8.09
2019-03-02T10:25:17.355Z,8.14
2019-03-02T10:26:17.377Z,8.29
2019-03-02T10:27:21.067Z,8.22
2019-03-02T10:28:17.421Z,8.29
2019-03-02T10:29:17.450Z,8.36
2019-03-02T10:30:24.310Z,8.42
2019-03-02T10:31:17.495Z,8.42
2019-03-02T10:32:19.516Z,8.36
2019-03-02T10:33:18.352Z,8.32
2019-03-02T10:34:17.566Z,8.31
2019-03-02T10:35:18.238Z,8.28
2019-03-02T10:36:17.613Z,8.35
2019-03-02T10:37:17.646Z,8.26
2019-03-02T10:38:19.008Z,8.28
2019-03-02T10:39:17.688Z,8.25
2019-03-02T10:40:20.341Z,8.26
2019-03-02T10:41:21.497Z,8.29
2019-03-02T10:42:20.383Z,8.31
2019-03-02T10:43:17.785Z,8.36
2019-03-02T10:44:21.014Z,8.44
2019-03-02T10:45:17.832Z,8.34
2019-03-02T10:46:20.486Z,8.34
2019-03-02T10:47:17.880Z,8.34
2019-03-02T10:48:17.913Z,8.35
2019-03-02T10:49:17.929Z,8.40
2019-03-02T10:50:19.537Z,8.35
2019-03-02T10:51:17.981Z,8.34
2019-03-02T10:52:18.002Z,8.35
2019-03-02T10:53:20.737Z,8.31
2019-03-02T10:54:18.053Z,8.34
2019-03-02T10:55:18.077Z,8.46
2019-03-02T10:56:20.981Z,8.39
2019-03-02T10:57:18.127Z,8.46
2019-03-02T10:58:18.156Z,8.50
2019-03-02T10:59:18.173Z,8.49
2019-03-02T11:00:18.199Z,8.50
2019-03-02T11:01:18.222Z,8.50
2019-03-02T11:02:20.074Z,8.50
2019-03-02T11:03:18.273Z,8.58
2019-03-02T11:04:18.646Z,8.58
2019-03-02T11:05:20.096Z,8.52
2019-03-02T11:06:18.346Z,8.65
2019-03-02T11:07:18.769Z,8.80
2019-03-02T11:08:21.728Z,8.79
2019-03-02T11:09:22.329Z,8.87
2019-03-02T11:10:18.800Z,8.92
2019-03-02T11:11:18.470Z,8.87
2019-03-02T11:12:18.494Z,8.89
2019-03-02T11:13:19.556Z,8.89
2019-03-02T11:14:18.551Z,8.90
2019-03-02T11:15:18.583Z,8.86
2019-03-02T11:16:18.592Z,8.86
2019-03-02T11:17:19.672Z,8.94
2019-03-02T11:18:18.642Z,9.00
2019-03-02T11:19:18.666Z,9.04
2019-03-02T11:20:20.826Z,9.04
2019-03-02T11:21:18.717Z,9.04
2019-03-02T11:22:19.859Z,9.05
2019-03-02T11:23:19.720Z,9.03
2019-03-02T11:24:18.793Z,9.03
2019-03-02T11:25:18.816Z,9.09
2019-03-02T11:26:18.849Z,9.03
2019-03-02T11:27:18.868Z,9.11
2019-03-02T11:28:18.891Z,8.97
2019-03-02T11:29:21.205Z,9.04
2019-03-02T11:30:18.951Z,9.05
2019-03-02T11:31:18.966Z,9.09
2019-03-02T11:32:20.381Z,9.08
2019-03-02T11:33:19.018Z,9.17
2019-03-02T11:34:19.042Z,9.11
2019-03-02T11:35:19.515Z,9.16
2019-03-02T11:36:19.099Z,9.20
2019-03-02T11:37:22.030Z,9.12
2019-03-02T11:38:19.166Z,9.14
2019-03-02T11:39:19.167Z,9.17
2019-03-02T11:40:19.200Z,9.21
2019-03-02T11:41:20.935Z,9.24
2019-03-02T11:42:19.247Z,9.32
2019-03-02T11:43:19.267Z,9.27
2019-03-02T11:44:19.295Z,9.37
2019-03-02T11:45:19.319Z,9.35
2019-03-02T11:46:19.344Z,9.30
2019-03-02T11:47:19.369Z,9.41
2019-03-02T11:48:19.393Z,9.41
2019-03-02T11:49:29.775Z,9.42
2019-03-02T11:50:19.445Z,9.32
2019-03-02T11:51:19.467Z,9.24
2019-03-02T11:52:19.495Z,9.34
2019-03-02T11:53:19.517Z,9.27
2019-03-02T11:54:19.542Z,9.29
2019-03-02T11:55:19.575Z,9.24
2019-03-02T11:56:26.688Z,9.26
2019-03-02T11:57:21.204Z,9.20
2019-03-02T11:58:19.644Z,9.20
2019-03-02T11:59:19.668Z,9.24
2019-03-02T12:00:21.463Z,9.32
2019-03-02T12:01:19.721Z,9.34
2019-03-02T12:02:23.513Z,9.21
2019-03-02T12:03:19.769Z,9.26
2019-03-02T12:04:19.804Z,9.37
2019-03-02T12:05:19.820Z,9.32
2019-03-02T12:06:19.843Z,9.23
2019-03-02T12:07:19.868Z,9.19
2019-03-02T12:08:22.028Z,9.21
2019-03-02T12:09:19.923Z,9.23
2019-03-02T12:10:19.947Z,9.23
2019-03-02T12:11:19.972Z,9.26
2019-03-02T12:12:20.000Z,9.20
2019-03-02T12:13:20.023Z,9.24
2019-03-02T12:14:20.045Z,9.30
2019-03-02T12:15:20.070Z,9.26
2019-03-02T12:16:22.132Z,9.29
2019-03-02T12:17:20.123Z,9.35
2019-03-02T12:18:20.149Z,9.38
2019-03-02T12:19:20.171Z,9.39
2019-03-02T12:20:20.206Z,9.37
2019-03-02T12:21:21.237Z,9.39
2019-03-02T12:22:20.252Z,9.37
2019-03-02T12:23:20.273Z,9.42
2019-03-02T12:24:22.323Z,9.48
2019-03-02T12:25:20.325Z,9.62
2019-03-02T12:26:20.349Z,9.57
2019-03-02T12:27:22.377Z,9.63
2019-03-02T12:28:20.397Z,9.71
2019-03-02T12:29:20.423Z,9.75
2019-03-02T12:30:22.322Z,9.78
2019-03-02T12:31:20.479Z,9.85
2019-03-02T12:32:20.500Z,9.98
2019-03-02T12:33:21.954Z,10.20
2019-03-02T12:34:20.551Z,10.55
2019-03-02T12:35:20.576Z,10.92
2019-03-02T12:36:20.602Z,11.03
2019-03-02T12:37:20.702Z,11.23
2019-03-02T12:38:20.650Z,11.39
2019-03-02T12:39:23.888Z,11.46
2019-03-02T12:40:20.705Z,11.49
2019-03-02T12:41:20.729Z,11.43
2019-03-02T12:42:20.754Z,11.38
2019-03-02T12:43:20.780Z,11.41
2019-03-02T12:44:21.419Z,11.43
2019-03-02T12:45:20.832Z,11.56
2019-03-02T12:46:20.866Z,11.59
2019-03-02T12:47:20.886Z,11.70
2019-03-02T12:48:20.918Z,11.53
2019-03-02T12:49:20.940Z,11.53
2019-03-02T12:50:23.109Z,11.52
2019-03-02T12:51:20.990Z,11.70
2019-03-02T12:52:21.018Z,11.53
2019-03-02T12:53:24.658Z,11.41
2019-03-02T12:54:21.071Z,11.41
2019-03-02T12:55:21.915Z,11.91
2019-03-02T12:56:21.125Z,12.38
2019-03-02T12:57:21.158Z,12.69
2019-03-02T12:58:23.245Z,12.92
2019-03-02T12:59:21.205Z,13.02
2019-03-02T13:00:21.239Z,12.71
2019-03-02T13:01:21.258Z,12.51
2019-03-02T13:02:21.285Z,12.62
2019-03-02T13:03:22.326Z,12.48
2019-03-02T13:04:21.342Z,12.18
2019-03-02T13:05:22.788Z,12.05
2019-03-02T13:06:21.397Z,12.03
2019-03-02T13:07:21.425Z,12.03
2019-03-02T13:08:22.838Z,11.95
2019-03-02T13:09:21.476Z,11.94
2019-03-02T13:10:21.514Z,11.94
2019-03-02T13:11:21.534Z,11.95
2019-03-02T13:12:21.567Z,11.86
2019-03-02T13:13:21.592Z,11.67
2019-03-02T13:14:21.614Z,11.82
2019-03-02T13:15:21.644Z,11.98
2019-03-02T13:16:23.803Z,11.84
2019-03-02T13:17:22.557Z,11.84